createdAt,value
2019-03-30T00:01:24.028Z,59.56
2019-03-30T00:03:52.684Z,59.92
2019-03-30T00:06:21.183Z,59.71
2019-03-30T00:08:49.834Z,60.13
2019-03-30T00:11:18.328Z,60.32
2019-03-30T00:13:46.829Z,60.68
2019-03-30T00:16:15.337Z,61.13
2019-03-30T00:18:43.824Z,61.07
2019-03-30T00:21:12.348Z,60.61
2019-03-30T00:23:40.895Z,60.25
2019-03-30T00:26:09.397Z,59.88
2019-03-30T00:28:38.074Z,60.68
2019-03-30T00:31:06.634Z,60.91
2019-03-30T00:33:35.126Z,61.24
2019-03-30T00:36:03.608Z,60.93
2019-03-30T00:38:32.297Z,60.92
2019-03-30T00:41:00.781Z,61.13
2019-03-30T00:43:29.271Z,61.02
2019-03-30T00:45:57.856Z,61.05
2019-03-30T00:48:26.340Z,60.88
2019-03-30T00:50:54.818Z,61.40
2019-03-30T00:53:23.348Z,61.69
2019-03-30T00:55:51.824Z,61.33
2019-03-30T00:58:20.350Z,61.39
2019-03-30T01:00:48.958Z,61.89
2019-03-30T01:03:17.415Z,62.34
2019-03-30T01:05:46.046Z,62.54
2019-03-30T01:08:14.545Z,62.19
2019-03-30T01:10:43.059Z,62.19
2019-03-30T01:13:11.932Z,62.24
2019-03-30T01:15:40.516Z,62.73
2019-03-30T01:18:08.996Z,63.36
2019-03-30T01:20:37.557Z,63.56
2019-03-30T01:23:06.052Z,63.43
2019-03-30T01:25:34.555Z,63.18
2019-03-30T01:28:03.050Z,63.27
2019-03-30T01:30:31.673Z,63.34
2019-03-30T01:33:00.192Z,63.41
2019-03-30T01:35:28.845Z,63.09
2019-03-30T01:37:57.435Z,62.92
2019-03-30T01:40:25.940Z,62.68
2019-03-30T01:42:54.413Z,62.32
2019-03-30T01:45:22.979Z,62.71
2019-03-30T01:47:51.504Z,62.89
2019-03-30T01:50:20.009Z,63.34
2019-03-30T01:52:48.501Z,63.84
2019-03-30T01:55:17.038Z,63.79
2019-03-30T01:57:45.531Z,63.57
2019-03-30T02:00:14.424Z,62.94
2019-03-30T02:02:42.941Z,62.82
2019-03-30T02:05:11.665Z,62.39
2019-03-30T02:07:40.152Z,62.27
2019-03-30T02:10:09.668Z,63.03
2019-03-30T02:12:38.439Z,63.34
2019-03-30T02:15:07.944Z,63.60
2019-03-30T02:17:36.416Z,63.31
2019-03-30T02:20:10.564Z,63.62
2019-03-30T02:22:39.062Z,63.42
2019-03-30T02:25:08.324Z,63.43
2019-03-30T02:27:36.838Z,63.81
2019-03-30T02:30:07.672Z,64.03
2019-03-30T02:32:36.136Z,64.09
2019-03-30T02:35:06.967Z,63.78
2019-03-30T02:37:35.466Z,63.94
2019-03-30T02:40:06.167Z,64.28
2019-03-30T02:42:34.686Z,64.21
2019-03-30T02:45:03.169Z,63.98
2019-03-30T02:47:31.671Z,63.78
2019-03-30T02:50:00.623Z,63.05
2019-03-30T02:52:29.130Z,62.93
2019-03-30T02:54:57.614Z,63.62
2019-03-30T02:57:26.093Z,64.19
2019-03-30T02:59:54.566Z,64.29
2019-03-30T03:02:23.309Z,64.43
2019-03-30T03:04:51.850Z,64.37
2019-03-30T03:07:20.321Z,64.39
2019-03-30T03:09:48.827Z,64.59
2019-03-30T03:12:17.334Z,64.86
2019-03-30T03:14:45.808Z,64.71
2019-03-30T03:17:14.287Z,63.92
2019-03-30T03:19:43.155Z,64.02
2019-03-30T03:22:11.613Z,64.30
2019-03-30T03:24:40.112Z,64.24
2019-03-30T03:27:08.601Z,64.15
2019-03-30T03:29:37.079Z,64.51
2019-03-30T03:32:05.632Z,64.24
2019-03-30T03:34:34.152Z,64.27
2019-03-30T03:37:02.629Z,64.56
2019-03-30T03:39:31.104Z,64.82
2019-03-30T03:42:04.588Z,65.15
2019-03-30T03:44:33.058Z,65.21
2019-03-30T03:47:01.547Z,65.45
2019-03-30T03:49:30.033Z,65.84
2019-03-30T03:51:59.282Z,65.51
2019-03-30T03:54:28.990Z,65.44
2019-03-30T03:56:58.838Z,65.65
2019-03-30T03:59:28.410Z,65.24
2019-03-30T04:01:59.400Z,64.94
2019-03-30T04:04:28.282Z,65.10
2019-03-30T04:06:59.760Z,63.89
2019-03-30T04:09:30.861Z,64.18
2019-03-30T04:12:00.101Z,64.55
2019-03-30T04:14:30.455Z,63.87
2019-03-30T04:16:59.022Z,62.72
2019-03-30T04:19:27.679Z,61.73
2019-03-30T04:21:56.163Z,60.15
2019-03-30T04:24:24.656Z,58.63
2019-03-30T04:26:53.161Z,58.28
2019-03-30T04:29:21.645Z,58.14
2019-03-30T04:31:50.339Z,58.17
2019-03-30T04:34:18.773Z,58.76
2019-03-30T04:36:47.324Z,58.34
2019-03-30T04:39:15.781Z,57.72
2019-03-30T04:41:44.298Z,57.94
2019-03-30T04:44:12.785Z,57.32
2019-03-30T04:46:41.258Z,55.09
2019-03-30T04:49:09.742Z,55.24
2019-03-30T04:51:56.568Z,54.58
2019-03-30T04:54:13.824Z,53.19
2019-03-30T04:56:42.511Z,52.01
2019-03-30T04:59:10.997Z,52.14
2019-03-30T05:01:39.498Z,52.40
2019-03-30T05:04:07.996Z,52.52
2019-03-30T05:06:36.489Z,53.04
2019-03-30T05:09:06.274Z,53.88
2019-03-30T05:11:34.751Z,54.08
2019-03-30T05:14:03.259Z,54.53
2019-03-30T05:16:31.718Z,54.71
2019-03-30T05:19:00.188Z,53.95
2019-03-30T05:21:28.851Z,54.19
2019-03-30T05:23:57.364Z,54.87
2019-03-30T05:26:25.878Z,56.33
2019-03-30T05:28:54.377Z,57.01
2019-03-30T05:31:22.862Z,57.65
2019-03-30T05:33:51.361Z,58.48
2019-03-30T05:36:19.873Z,58.51
2019-03-30T05:38:48.528Z,58.90
2019-03-30T05:41:17.012Z,59.13
2019-03-30T05:43:45.505Z,59.21
2019-03-30T05:46:13.995Z,59.14
2019-03-30T05:48:42.489Z,59.87
2019-03-30T05:51:10.995Z,60.34
2019-03-30T05:53:39.502Z,60.42
2019-03-30T05:56:08.063Z,59.90
2019-03-30T05:58:36.549Z,59.90
2019-03-30T06:01:05.031Z,59.51
2019-03-30T06:03:33.526Z,60.09
2019-03-30T06:06:01.994Z,60.44
2019-03-30T06:08:30.479Z,60.64
2019-03-30T06:10:59.066Z,60.25
2019-03-30T06:13:27.526Z,60.23
2019-03-30T06:15:56.091Z,60.84
2019-03-30T06:18:24.561Z,61.16
2019-03-30T06:20:53.022Z,59.27
2019-03-30T06:23:21.601Z,60.08
2019-03-30T06:25:50.113Z,60.06
2019-03-30T06:28:19.178Z,59.25
2019-03-30T06:30:47.645Z,58.78
2019-03-30T06:33:16.113Z,58.60
2019-03-30T06:35:44.601Z,58.14
2019-03-30T06:38:13.059Z,58.25
2019-03-30T06:40:41.528Z,58.50
2019-03-30T06:43:10.086Z,58.61
2019-03-30T06:45:38.571Z,59.77
2019-03-30T06:48:07.020Z,60.30
2019-03-30T06:50:35.570Z,61.01
2019-03-30T06:53:04.062Z,61.26
2019-03-30T06:55:32.531Z,61.83
2019-03-30T06:58:01.031Z,62.24
2019-03-30T07:00:34.195Z,61.92
2019-03-30T07:03:05.012Z,61.98
2019-03-30T07:05:36.535Z,62.28
2019-03-30T07:08:05.282Z,62.59
2019-03-30T07:10:33.982Z,62.54
2019-03-30T07:13:04.011Z,62.62
2019-03-30T07:15:34.774Z,62.96
2019-03-30T07:18:04.915Z,63.10
2019-03-30T07:20:33.875Z,63.50
2019-03-30T07:23:11.881Z,63.69
2019-03-30T07:25:32.572Z,63.28
2019-03-30T07:28:01.042Z,63.15
2019-03-30T07:30:29.597Z,63.05
2019-03-30T07:32:58.081Z,63.09
2019-03-30T07:35:26.567Z,62.96
2019-03-30T07:37:55.175Z,62.76
2019-03-30T07:40:23.753Z,63.64
2019-03-30T07:42:52.345Z,63.00
2019-03-30T07:45:21.406Z,63.21
2019-03-30T07:47:49.908Z,63.14
2019-03-30T07:50:18.624Z,62.91
2019-03-30T07:52:47.114Z,62.39
2019-03-30T07:55:15.629Z,61.76
2019-03-30T07:57:44.171Z,61.96
2019-03-30T08:00:13.356Z,61.09
2019-03-30T08:02:41.839Z,61.04
2019-03-30T08:05:10.445Z,60.79
2019-03-30T08:07:38.910Z,60.63
2019-03-30T08:10:07.480Z,60.14
2019-03-30T08:12:36.039Z,60.23
2019-03-30T08:15:07.248Z,59.71
2019-03-30T08:17:35.770Z,58.22
2019-03-30T08:20:05.891Z,57.34
2019-03-30T08:22:34.393Z,55.94
2019-03-30T08:25:02.957Z,52.18
2019-03-30T08:27:31.451Z,51.60
2019-03-30T08:29:59.890Z,49.06
2019-03-30T08:32:28.388Z,48.25
2019-03-30T08:34:56.836Z,47.49
2019-03-30T08:37:25.299Z,46.32
2019-03-30T08:39:53.762Z,45.82
2019-03-30T08:42:22.307Z,45.10
2019-03-30T08:44:50.809Z,43.43
2019-03-30T08:47:19.297Z,43.10
2019-03-30T08:49:47.789Z,43.18
2019-03-30T08:52:16.261Z,42.22
2019-03-30T08:54:44.794Z,39.68
2019-03-30T08:57:13.438Z,40.21
2019-03-30T08:59:41.906Z,40.10
2019-03-30T09:02:10.385Z,38.04
2019-03-30T09:04:38.861Z,37.29
2019-03-30T09:07:07.371Z,38.06
2019-03-30T09:09:35.885Z,35.93
2019-03-30T09:12:04.439Z,35.71
2019-03-30T09:14:32.970Z,34.78
2019-03-30T09:17:01.468Z,33.04
2019-03-30T09:19:29.973Z,33.36
2019-03-30T09:21:58.447Z,33.56
2019-03-30T09:24:26.939Z,32.64
2019-03-30T09:26:55.430Z,32.27
2019-03-30T09:29:23.899Z,32.64
2019-03-30T09:31:52.394Z,33.55
2019-03-30T09:34:20.912Z,32.68
2019-03-30T09:36:49.601Z,32.99
2019-03-30T09:39:18.106Z,32.88
2019-03-30T09:41:46.592Z,32.48
2019-03-30T09:44:15.073Z,33.68
2019-03-30T09:46:43.536Z,32.59
2019-03-30T09:49:12.072Z,32.96
2019-03-30T09:51:40.552Z,31.78
2019-03-30T09:54:22.816Z,30.48
2019-03-30T09:56:39.262Z,30.27
2019-03-30T09:59:07.782Z,30.97
2019-03-30T10:01:36.636Z,28.69
2019-03-30T10:04:05.384Z,27.66
2019-03-30T10:06:34.796Z,27.20
2019-03-30T10:09:04.011Z,26.79
2019-03-30T10:11:32.499Z,27.80
2019-03-30T10:14:01.021Z,28.98
2019-03-30T10:16:29.560Z,29.74
2019-03-30T10:18:58.066Z,29.66
2019-03-30T10:21:26.707Z,29.85
2019-03-30T10:23:55.222Z,30.34
2019-03-30T10:26:23.731Z,29.80
2019-03-30T10:28:52.244Z,30.84
2019-03-30T10:31:20.952Z,30.46
2019-03-30T10:33:49.450Z,30.42
2019-03-30T10:36:17.912Z,30.03
2019-03-30T10:38:46.402Z,29.72
2019-03-30T10:41:14.901Z,29.67
2019-03-30T10:43:43.657Z,30.02
2019-03-30T10:46:12.120Z,29.63
2019-03-30T10:48:40.629Z,29.63
2019-03-30T10:51:09.156Z,30.71
2019-03-30T10:53:37.641Z,30.28
2019-03-30T10:56:06.162Z,29.45
2019-03-30T10:58:34.655Z,29.72
2019-03-30T11:01:03.161Z,29.24
2019-03-30T11:03:31.676Z,28.88
2019-03-30T11:06:00.152Z,28.06
2019-03-30T11:08:28.666Z,29.36
2019-03-30T11:10:57.345Z,29.36
2019-03-30T11:13:25.842Z,29.11
2019-03-30T11:15:54.352Z,30.91
2019-03-30T11:18:22.851Z,29.54
2019-03-30T11:20:51.692Z,29.85
2019-03-30T11:23:20.237Z,29.49
2019-03-30T11:25:48.736Z,30.37
2019-03-30T11:28:17.228Z,30.40
2019-03-30T11:30:45.828Z,30.19
2019-03-30T11:33:14.342Z,30.86
2019-03-30T11:35:43.027Z,31.90
2019-03-30T11:38:11.548Z,30.73
2019-03-30T11:40:40.472Z,31.03
2019-03-30T11:43:08.963Z,31.74
2019-03-30T11:45:37.563Z,31.17
2019-03-30T11:48:06.062Z,31.36
2019-03-30T11:50:34.537Z,30.97
2019-03-30T11:53:03.057Z,31.96
2019-03-30T11:55:31.565Z,31.94
2019-03-30T11:58:00.173Z,31.62
2019-03-30T12:00:28.749Z,32.59
2019-03-30T12:02:57.241Z,31.83
2019-03-30T12:05:25.752Z,30.90
2019-03-30T12:07:54.277Z,30.68
2019-03-30T12:10:22.774Z,29.04
2019-03-30T12:12:51.308Z,30.47
2019-03-30T12:15:19.837Z,30.23
2019-03-30T12:17:48.519Z,29.98
2019-03-30T12:20:17.168Z,29.90
2019-03-30T12:22:45.739Z,29.97
2019-03-30T12:25:14.234Z,29.24
2019-03-30T12:27:42.763Z,29.24
2019-03-30T12:30:11.703Z,29.19
2019-03-30T12:32:40.205Z,28.04
2019-03-30T12:35:08.970Z,29.20
2019-03-30T12:37:37.494Z,30.00
2019-03-30T12:40:07.443Z,29.69
2019-03-30T12:42:36.028Z,28.52
2019-03-30T12:45:07.070Z,28.62
2019-03-30T12:47:35.628Z,28.43
2019-03-30T12:50:06.188Z,27.50
2019-03-30T12:52:34.681Z,28.12
2019-03-30T12:55:03.441Z,27.56
2019-03-30T12:57:31.947Z,28.33
2019-03-30T13:00:00.448Z,28.37
2019-03-30T13:02:28.940Z,27.68
2019-03-30T13:04:57.462Z,28.14
2019-03-30T13:07:25.962Z,26.96
2019-03-30T13:09:54.482Z,27.22
2019-03-30T13:12:22.990Z,27.63
2019-03-30T13:14:51.475Z,27.14
2019-03-30T13:17:19.998Z,28.04
2019-03-30T13:19:48.853Z,27.62
2019-03-30T13:22:17.349Z,27.28
2019-03-30T13:24:45.870Z,27.84
2019-03-30T13:27:14.349Z,26.59
2019-03-30T13:29:42.853Z,28.02
2019-03-30T13:32:11.438Z,27.36
2019-03-30T13:34:39.929Z,26.87
2019-03-30T13:37:16.541Z,25.72
2019-03-30T13:39:45.659Z,25.47
2019-03-30T13:42:14.210Z,25.77
2019-03-30T13:44:42.744Z,26.29
2019-03-30T13:47:11.257Z,26.20
2019-03-30T13:49:39.866Z,26.37
2019-03-30T13:52:08.455Z,25.67
2019-03-30T13:54:38.782Z,25.71
2019-03-30T13:57:07.190Z,25.43
2019-03-30T13:59:35.703Z,25.89
2019-03-30T14:02:04.286Z,26.02
2019-03-30T14:04:32.787Z,25.22
2019-03-30T14:07:01.307Z,25.87
2019-03-30T14:09:29.826Z,26.47
2019-03-30T14:11:58.329Z,26.18
2019-03-30T14:14:26.853Z,25.71
2019-03-30T14:16:55.349Z,26.35
2019-03-30T14:19:23.847Z,26.65
2019-03-30T14:21:52.363Z,25.79
2019-03-30T14:24:20.883Z,26.59
2019-03-30T14:26:49.378Z,26.04
2019-03-30T14:29:17.911Z,26.04
2019-03-30T14:31:46.423Z,26.24
2019-03-30T14:34:14.909Z,25.97
2019-03-30T14:36:43.425Z,26.31
2019-03-30T14:39:11.924Z,26.66
2019-03-30T14:41:40.422Z,26.67
2019-03-30T14:44:08.955Z,26.98
2019-03-30T14:46:37.479Z,26.63
2019-03-30T14:49:06.381Z,26.21
2019-03-30T14:51:34.910Z,26.26
2019-03-30T14:54:03.435Z,26.36
2019-03-30T14:56:44.892Z,26.08
2019-03-30T14:59:09.973Z,26.35
2019-03-30T15:01:32.477Z,26.14
2019-03-30T15:04:00.977Z,26.23
2019-03-30T15:06:29.561Z,26.24
2019-03-30T15:08:58.080Z,26.84
2019-03-30T15:11:26.585Z,26.77
2019-03-30T15:13:55.105Z,26.61
2019-03-30T15:16:23.694Z,26.83
2019-03-30T15:18:52.188Z,26.88
2019-03-30T15:21:20.690Z,27.20
2019-03-30T15:23:49.190Z,26.70
2019-03-30T15:26:17.693Z,27.47
2019-03-30T15:28:46.204Z,26.50
2019-03-30T15:31:14.712Z,26.82
2019-03-30T15:33:43.212Z,26.36
2019-03-30T15:36:11.690Z,26.39
2019-03-30T15:38:40.233Z,26.71
2019-03-30T15:41:08.750Z,27.13
2019-03-30T15:43:38.782Z,26.86
2019-03-30T15:46:07.623Z,28.05
2019-03-30T15:48:36.103Z,28.70
2019-03-30T15:51:04.674Z,29.29
2019-03-30T15:53:33.251Z,29.66
2019-03-30T15:56:01.741Z,30.55
2019-03-30T15:58:30.231Z,30.70
2019-03-30T16:00:58.807Z,30.72
2019-03-30T16:03:27.364Z,30.68
2019-03-30T16:05:55.885Z,31.03
2019-03-30T16:08:24.742Z,30.74
2019-03-30T16:10:53.217Z,30.43
2019-03-30T16:13:21.735Z,31.08
2019-03-30T16:15:50.327Z,31.11
2019-03-30T16:18:18.802Z,30.62
2019-03-30T16:20:47.293Z,30.09
2019-03-30T16:23:15.787Z,30.65
2019-03-30T16:25:44.348Z,30.36
2019-03-30T16:28:12.912Z,31.14
2019-03-30T16:30:41.507Z,31.49
2019-03-30T16:33:10.010Z,32.55
2019-03-30T16:35:38.497Z,33.79
2019-03-30T16:38:07.085Z,33.21
2019-03-30T16:40:35.593Z,31.06
2019-03-30T16:43:04.386Z,30.81
2019-03-30T16:45:32.890Z,30.82
2019-03-30T16:48:01.387Z,30.95
2019-03-30T16:50:29.888Z,31.02
2019-03-30T16:52:58.365Z,31.08
2019-03-30T16:55:26.844Z,30.92
2019-03-30T16:57:55.356Z,31.12
2019-03-30T17:00:23.887Z,31.51
2019-03-30T17:02:52.402Z,31.39
2019-03-30T17:05:20.917Z,31.42
2019-03-30T17:07:49.399Z,31.62
2019-03-30T17:10:17.986Z,33.48
2019-03-30T17:12:46.483Z,33.59
2019-03-30T17:15:15.112Z,33.27
2019-03-30T17:17:43.632Z,34.13
2019-03-30T17:20:13.245Z,35.52
2019-03-30T17:22:41.746Z,36.41
2019-03-30T17:25:10.422Z,37.31
2019-03-30T17:27:38.952Z,38.37
2019-03-30T17:30:09.155Z,39.05
2019-03-30T17:32:37.741Z,39.74
2019-03-30T17:35:07.295Z,39.67
2019-03-30T17:37:35.788Z,39.00
2019-03-30T17:40:08.718Z,38.83
2019-03-30T17:42:38.963Z,39.00
2019-03-30T17:45:09.863Z,39.52
2019-03-30T17:47:38.399Z,40.13
2019-03-30T17:50:08.141Z,40.34
2019-03-30T17:52:36.652Z,40.63
2019-03-30T17:55:06.076Z,40.88
2019-03-30T17:57:34.585Z,41.18
2019-03-30T18:00:07.748Z,41.36
2019-03-30T18:02:34.340Z,41.41
2019-03-30T18:05:02.835Z,41.28
2019-03-30T18:07:31.350Z,41.07
2019-03-30T18:10:03.295Z,41.23
2019-03-30T18:12:30.081Z,41.48
2019-03-30T18:14:58.598Z,41.58
2019-03-30T18:17:27.108Z,41.85
2019-03-30T18:19:55.626Z,41.72
2019-03-30T18:22:24.121Z,41.43
2019-03-30T18:24:52.624Z,41.68
2019-03-30T18:27:21.153Z,41.43
2019-03-30T18:29:49.663Z,40.28
2019-03-30T18:32:18.691Z,40.18
2019-03-30T18:34:47.435Z,40.94
2019-03-30T18:37:17.368Z,40.64
2019-03-30T18:39:46.524Z,40.18
2019-03-30T18:42:15.034Z,40.75
2019-03-30T18:44:44.613Z,40.81
2019-03-30T18:47:13.152Z,41.03
2019-03-30T18:49:42.762Z,40.42
2019-03-30T18:52:11.517Z,40.44
2019-03-30T18:54:41.950Z,40.39
2019-03-30T18:57:10.525Z,40.46
2019-03-30T18:59:39.103Z,41.09
2019-03-30T19:02:07.695Z,41.49
2019-03-30T19:04:36.195Z,41.92
2019-03-30T19:07:04.721Z,42.05
2019-03-30T19:09:33.230Z,41.96
2019-03-30T19:12:01.893Z,41.94
2019-03-30T19:14:30.411Z,42.04
2019-03-30T19:16:58.882Z,42.29
2019-03-30T19:19:27.383Z,42.70
2019-03-30T19:21:55.908Z,42.74
2019-03-30T19:24:24.400Z,42.54
2019-03-30T19:26:52.897Z,42.59
2019-03-30T19:29:21.410Z,42.46
2019-03-30T19:31:49.905Z,42.20
2019-03-30T19:34:18.419Z,42.24
2019-03-30T19:36:47.002Z,42.05
2019-03-30T19:39:15.517Z,42.15
2019-03-30T19:41:44.054Z,42.06
2019-03-30T19:44:12.557Z,42.16
2019-03-30T19:46:41.083Z,42.32
2019-03-30T19:49:09.595Z,42.22
2019-03-30T19:51:38.114Z,42.13
2019-03-30T19:54:06.610Z,42.21
2019-03-30T19:56:35.119Z,42.16
2019-03-30T19:59:10.582Z,42.17
2019-03-30T20:01:33.958Z,42.28
2019-03-30T20:04:02.465Z,42.50
2019-03-30T20:06:30.956Z,42.45
2019-03-30T20:08:59.457Z,42.03
2019-03-30T20:11:28.046Z,41.98
2019-03-30T20:13:56.524Z,41.94
2019-03-30T20:16:25.050Z,42.51
2019-03-30T20:19:11.036Z,42.82
2019-03-30T20:21:23.760Z,42.86
2019-03-30T20:23:52.255Z,43.06
2019-03-30T20:26:20.768Z,43.07
2019-03-30T20:28:49.303Z,42.94
2019-03-30T20:31:17.808Z,43.04
2019-03-30T20:33:46.317Z,42.92
2019-03-30T20:36:14.800Z,43.49
2019-03-30T20:38:43.296Z,43.62
2019-03-30T20:41:11.880Z,44.22
2019-03-30T20:43:40.348Z,44.62
2019-03-30T20:46:08.819Z,44.80
2019-03-30T20:48:37.324Z,45.16
2019-03-30T20:51:05.826Z,45.05
2019-03-30T20:53:34.315Z,44.61
2019-03-30T20:56:02.848Z,44.70
2019-03-30T20:58:31.324Z,44.33
2019-03-30T21:00:59.982Z,44.50
2019-03-30T21:03:28.487Z,43.83
2019-03-30T21:05:56.989Z,44.23
2019-03-30T21:08:25.477Z,44.90
2019-03-30T21:10:53.994Z,45.44
2019-03-30T21:13:22.481Z,44.96
2019-03-30T21:15:50.959Z,44.30
2019-03-30T21:18:19.526Z,44.34
2019-03-30T21:20:48.015Z,44.41
2019-03-30T21:23:16.507Z,44.60
2019-03-30T21:25:45.048Z,44.67
2019-03-30T21:28:13.643Z,45.20
2019-03-30T21:30:42.125Z,45.04
2019-03-30T21:33:10.620Z,45.15
2019-03-30T21:35:39.104Z,44.96
2019-03-30T21:38:07.618Z,44.52
2019-03-30T21:40:36.144Z,44.28
2019-03-30T21:43:04.795Z,45.00
2019-03-30T21:45:33.296Z,44.93
2019-03-30T21:48:02.486Z,45.17
2019-03-30T21:50:30.991Z,46.00
2019-03-30T21:52:59.486Z,45.62
2019-03-30T21:55:27.995Z,45.94
2019-03-30T21:57:56.515Z,45.48
2019-03-30T22:00:43.534Z,45.19
2019-03-30T22:03:12.116Z,45.29
2019-03-30T22:05:41.258Z,45.66
2019-03-30T22:08:10.226Z,46.11
2019-03-30T22:10:38.734Z,47.47
2019-03-30T22:13:07.299Z,47.39
2019-03-30T22:15:35.799Z,48.58
2019-03-30T22:18:04.475Z,48.71
2019-03-30T22:20:33.233Z,49.25
2019-03-30T22:23:01.732Z,50.04
2019-03-30T22:25:30.237Z,50.51
2019-03-30T22:27:58.820Z,49.69
2019-03-30T22:30:27.370Z,49.71
2019-03-30T22:32:55.895Z,49.96
2019-03-30T22:35:24.382Z,50.29
2019-03-30T22:37:52.892Z,50.68
2019-03-30T22:40:21.396Z,49.41
2019-03-30T22:42:49.879Z,48.51
2019-03-30T22:45:18.429Z,48.71
2019-03-30T22:47:46.936Z,49.11
2019-03-30T22:50:15.863Z,49.58
2019-03-30T22:52:44.353Z,50.07
2019-03-30T22:55:12.996Z,50.55
2019-03-30T22:57:41.553Z,50.49
2019-03-30T23:00:38.671Z,50.75
2019-03-30T23:03:00.160Z,50.63
2019-03-30T23:05:28.639Z,50.90
2019-03-30T23:07:57.138Z,51.24
2019-03-30T23:10:25.699Z,51.29
2019-03-30T23:12:54.188Z,51.41
2019-03-30T23:15:22.771Z,51.33
2019-03-30T23:17:51.262Z,51.56
2019-03-30T23:20:19.817Z,50.72
2019-03-30T23:22:48.309Z,50.83
2019-03-30T23:25:16.798Z,51.33
2019-03-30T23:27:45.295Z,52.24
2019-03-30T23:30:14.819Z,51.91
2019-03-30T23:32:43.276Z,51.79
2019-03-30T23:35:11.912Z,52.97
2019-03-30T23:37:40.397Z,53.41
2019-03-30T23:40:08.943Z,53.58
2019-03-30T23:42:37.442Z,53.39
2019-03-30T23:45:06.845Z,52.71
2019-03-30T23:47:35.343Z,51.91
2019-03-30T23:50:04.904Z,51.22
2019-03-30T23:52:33.360Z,52.21
2019-03-30T23:55:01.850Z,52.98
2019-03-30T23:57:30.344Z,52.40
2019-03-30T23:59:58.790Z,51.42
